LOWI Informações do Aeroporto

Informações da Pista
Pista 08 Comprimento 6562 ft Largura 148 ft
Elevação 1906 ft Limite 339 ft Heading 81
Pista 26 Comprimento 6562 ft Largura 148 ft
Elevação 1893 ft Limite 198 ft Heading 261
Frequências do Aeroporto
Tipo APP Nome APP Frequência 119.275 MHZ
Tipo ATIS Nome ATIS Frequência 126.025 MHZ
Tipo GND Crew Nome Frequência 121.8 MHZ
Tipo GND Crew Nome Frequência 121.9 MHZ
Tipo TWR Nome TWR Frequência 120.1 MHZ
Navaids do Aeroporto
Tipo NDB Nome Innsbruck Frequência 420 KHZ
Tipo NDB Nome Kuhtai Frequência 413 KHZ
Informações meteorológicas do aeroporto e NOTAM
ADDS - METARS form results

(0804 UTC 06 July 2020)
Data provider http://aviationweather.gov/metar/data/
 
METAR text: LOWI 060750Z 27003KT 200V320 9999 FEW050 22/15 Q1014 NOSIG
Conditions at: LOWI (INNSBRUCK AIRPOR, AT) observed 0750 UTC 06 July 2020
Temperature: 22.0°C (72°F)
Dewpoint: 15.0°C (59°F) [RH = 65%]
Pressure (altimeter): 29.94 inches Hg (1014.0 mb)
Winds: from the W (270 degrees) at 3 MPH (3 knots; 1.5 m/s)
Visibility: 6 or more miles (10+ km)
Ceiling: at least 12,000 feet AGL
Clouds: few clouds at 5000 feet AGL
Weather: no significant weather observed at this time

METAR text: LOWI 060720Z VRB01KT 9999 FEW050 21/15 Q1015 NOSIG
Conditions at: LOWI (INNSBRUCK AIRPOR, AT) observed 0720 UTC 06 July 2020
Temperature: 21.0°C (70°F)
Dewpoint: 15.0°C (59°F) [RH = 69%]
Pressure (altimeter): 29.97 inches Hg (1015.0 mb)
Winds: variable direction winds at 1 MPH (1 knots; 0.5 m/s)
Visibility: 6 or more miles (10+ km)
Ceiling: at least 12,000 feet AGL
Clouds: few clouds at 5000 feet AGL
Weather: no significant weather observed at this time

Forecast for: LOWI (INNSBRUCK AIRPOR, AT)
Text: TAF LOWI 060515Z 0606/0706 27005KT 9999 FEW060 TX23/0613Z TN12/0704Z
Forecast period: 0600 to 1900 UTC 06 July 2020
Forecast type: FROM: standard forecast or significant change
Winds: from the W (270 degrees) at 6 MPH (5 knots; 2.6 m/s)
Visibility: 6 or more miles 10+ km)
Ceiling: at least 12,000 feet AGL
Clouds: few clouds at 6000 feet AGL
Weather: no significant weather forecast for this period
Text: TEMPO 0610/0621 27010KT -SHRA FEW030 BKN050
Forecast period: 1000 to 2100 UTC 06 July 2020
Forecast type: TEMPORARY: The following changes expected for less than half the time period
Winds: from the W (270 degrees) at 12 MPH (10 knots; 5.1 m/s)
Visibility: missing
Ceiling: 5000 feet AGL
Clouds: few clouds at 3000 feet AGL
broken clouds at 5000 feet AGL
Weather: -SHRA  (light rain showers)
Text: BECMG 0619/0621 07007KT
Forecast period: 1900 UTC 06 July 2020 to 0600 UTC 07 July 2020
Forecast type: BECOMING: Conditions expected to become as follows by 2100 UTC 06 July 2020
Winds: from the ENE (70 degrees) at 8 MPH (7 knots; 3.6 m/s)
Visibility: 6 or more miles 10+ km)
Ceiling: at least 12,000 feet AGL
Clouds: few clouds at 6000 feet AGL
Weather: no significant weather forecast for this period